Terminal Aerodrome Forecast
Issued by NWS

Home | Current Version | Previous Version | Text Only | Print | Product List | Glossary On
Versions: 1 2 3 4 5 6 7 8 9 10 11 12 13 14 15 16
000
FTAK31 PAJN 301700
TAFAGY
TAF
PAGY 301740Z 3018/3118 04005KT P6SM OVC060
     FM302100 04011KT P6SM BKN040 BKN080
     FM310300 04008KT P6SM BKN120
     FM310900 04005KT P6SM VCSH BKN050 OVC100
     FM311500 VRB03KT P6SM VCSH OVC050
      AMD LTD TO CLD VIS AND WIND=

USA.gov is the U.S. government's official web portal to all federal, state and local government web resources and services.